sensor_id;sensor_type;location;lat;lon;timestamp;P1;durP1;ratioP1;P2;durP2;ratioP2
4957;SDS011;2494;51.872;9.688;2023-07-24T00:00:33;1.93;;;1.70;;
4957;SDS011;2494;51.872;9.688;2023-07-24T00:03:19;1.93;;;1.30;;
4957;SDS011;2494;51.872;9.688;2023-07-24T00:06:04;2.17;;;1.60;;
4957;SDS011;2494;51.872;9.688;2023-07-24T00:08:50;1.67;;;1.57;;
4957;SDS011;2494;51.872;9.688;2023-07-24T00:11:36;2.20;;;1.40;;
4957;SDS011;2494;51.872;9.688;2023-07-24T00:14:21;1.60;;;1.50;;
4957;SDS011;2494;51.872;9.688;2023-07-24T00:17:06;1.53;;;1.43;;
4957;SDS011;2494;51.872;9.688;2023-07-24T00:19:52;2.20;;;1.50;;
4957;SDS011;2494;51.872;9.688;2023-07-24T00:22:37;1.67;;;1.50;;
4957;SDS011;2494;51.872;9.688;2023-07-24T00:25:24;1.50;;;1.40;;
4957;SDS011;2494;51.872;9.688;2023-07-24T00:28:09;1.40;;;1.30;;
4957;SDS011;2494;51.872;9.688;2023-07-24T00:30:54;1.50;;;1.40;;
4957;SDS011;2494;51.872;9.688;2023-07-24T00:33:39;1.60;;;1.30;;
4957;SDS011;2494;51.872;9.688;2023-07-24T00:36:25;2.00;;;1.57;;
4957;SDS011;2494;51.872;9.688;2023-07-24T00:39:10;1.53;;;1.43;;
4957;SDS011;2494;51.872;9.688;2023-07-24T00:41:57;1.53;;;1.43;;
4957;SDS011;2494;51.872;9.688;2023-07-24T00:44:42;1.50;;;1.40;;
4957;SDS011;2494;51.872;9.688;2023-07-24T00:47:27;1.50;;;1.37;;
4957;SDS011;2494;51.872;9.688;2023-07-24T00:50:12;1.37;;;1.27;;
4957;SDS011;2494;51.872;9.688;2023-07-24T00:52:58;1.53;;;1.43;;
4957;SDS011;2494;51.872;9.688;2023-07-24T00:55:43;1.80;;;1.70;;
4957;SDS011;2494;51.872;9.688;2023-07-24T00:58:31;1.77;;;1.67;;
4957;SDS011;2494;51.872;9.688;2023-07-24T01:01:16;3.03;;;1.57;;
4957;SDS011;2494;51.872;9.688;2023-07-24T01:04:01;1.30;;;1.20;;
4957;SDS011;2494;51.872;9.688;2023-07-24T01:06:47;1.37;;;1.27;;
4957;SDS011;2494;51.872;9.688;2023-07-24T01:09:32;1.40;;;1.30;;
4957;SDS011;2494;51.872;9.688;2023-07-24T01:12:19;1.30;;;1.20;;
4957;SDS011;2494;51.872;9.688;2023-07-24T01:15:09;1.40;;;1.30;;
4957;SDS011;2494;51.872;9.688;2023-07-24T01:17:59;3.40;;;1.50;;
4957;SDS011;2494;51.872;9.688;2023-07-24T01:20:47;1.40;;;1.30;;
4957;SDS011;2494;51.872;9.688;2023-07-24T01:23:37;2.13;;;1.70;;
4957;SDS011;2494;51.872;9.688;2023-07-24T01:26:24;1.40;;;1.30;;
4957;SDS011;2494;51.872;9.688;2023-07-24T01:29:10;1.93;;;1.20;;
4957;SDS011;2494;51.872;9.688;2023-07-24T01:31:55;1.30;;;1.20;;
4957;SDS011;2494;51.872;9.688;2023-07-24T01:34:40;1.27;;;1.17;;
4957;SDS011;2494;51.872;9.688;2023-07-24T01:37:25;2.03;;;1.10;;
4957;SDS011;2494;51.872;9.688;2023-07-24T01:40:11;1.60;;;1.50;;
4957;SDS011;2494;51.872;9.688;2023-07-24T01:42:58;1.87;;;1.23;;
4957;SDS011;2494;51.872;9.688;2023-07-24T01:45:43;1.23;;;1.13;;
4957;SDS011;2494;51.872;9.688;2023-07-24T01:48:28;1.47;;;1.37;;
4957;SDS011;2494;51.872;9.688;2023-07-24T01:51:13;2.50;;;1.40;;
4957;SDS011;2494;51.872;9.688;2023-07-24T01:53:58;1.40;;;1.30;;
4957;SDS011;2494;51.872;9.688;2023-07-24T01:56:43;1.67;;;1.57;;
4957;SDS011;2494;51.872;9.688;2023-07-24T01:59:30;1.43;;;1.33;;
4957;SDS011;2494;51.872;9.688;2023-07-24T02:02:15;2.50;;;1.63;;
4957;SDS011;2494;51.872;9.688;2023-07-24T02:05:01;1.70;;;1.60;;
4957;SDS011;2494;51.872;9.688;2023-07-24T02:07:46;1.80;;;1.30;;
4957;SDS011;2494;51.872;9.688;2023-07-24T02:10:31;1.30;;;1.20;;
4957;SDS011;2494;51.872;9.688;2023-07-24T02:13:16;1.63;;;1.50;;
4957;SDS011;2494;51.872;9.688;2023-07-24T02:16:03;1.47;;;1.37;;
4957;SDS011;2494;51.872;9.688;2023-07-24T02:18:49;4.00;;;1.80;;
4957;SDS011;2494;51.872;9.688;2023-07-24T02:21:35;1.60;;;1.50;;
4957;SDS011;2494;51.872;9.688;2023-07-24T02:24:20;2.67;;;1.60;;
4957;SDS011;2494;51.872;9.688;2023-07-24T02:27:05;1.57;;;1.47;;
4957;SDS011;2494;51.872;9.688;2023-07-24T02:29:50;2.97;;;1.53;;
4957;SDS011;2494;51.872;9.688;2023-07-24T02:32:37;3.20;;;1.90;;
4957;SDS011;2494;51.872;9.688;2023-07-24T02:35:22;1.43;;;1.33;;
4957;SDS011;2494;51.872;9.688;2023-07-24T02:38:08;2.00;;;1.63;;
4957;SDS011;2494;51.872;9.688;2023-07-24T02:40:54;2.07;;;1.90;;
4957;SDS011;2494;51.872;9.688;2023-07-24T02:43:39;1.73;;;1.63;;
4957;SDS011;2494;51.872;9.688;2023-07-24T02:46:24;1.67;;;1.57;;
4957;SDS011;2494;51.872;9.688;2023-07-24T02:49:10;3.50;;;1.50;;
4957;SDS011;2494;51.872;9.688;2023-07-24T02:51:56;2.60;;;1.37;;
4957;SDS011;2494;51.872;9.688;2023-07-24T02:54:41;1.87;;;1.60;;
4957;SDS011;2494;51.872;9.688;2023-07-24T02:57:26;2.37;;;1.80;;
4957;SDS011;2494;51.872;9.688;2023-07-24T03:00:11;1.70;;;1.60;;
4957;SDS011;2494;51.872;9.688;2023-07-24T03:02:57;1.70;;;1.60;;
4957;SDS011;2494;51.872;9.688;2023-07-24T03:05:43;2.60;;;2.07;;
4957;SDS011;2494;51.872;9.688;2023-07-24T03:08:28;2.53;;;1.70;;
4957;SDS011;2494;51.872;9.688;2023-07-24T03:11:13;2.97;;;1.80;;
4957;SDS011;2494;51.872;9.688;2023-07-24T03:13:59;2.60;;;1.50;;
4957;SDS011;2494;51.872;9.688;2023-07-24T03:16:44;3.83;;;1.70;;
4957;SDS011;2494;51.872;9.688;2023-07-24T03:19:29;2.80;;;1.83;;
4957;SDS011;2494;51.872;9.688;2023-07-24T03:22:15;3.00;;;1.40;;
4957;SDS011;2494;51.872;9.688;2023-07-24T03:25:00;2.13;;;1.70;;
4957;SDS011;2494;51.872;9.688;2023-07-24T03:27:46;1.60;;;1.40;;
4957;SDS011;2494;51.872;9.688;2023-07-24T03:30:31;4.13;;;1.90;;
4957;SDS011;2494;51.872;9.688;2023-07-24T03:33:16;4.80;;;1.80;;
4957;SDS011;2494;51.872;9.688;2023-07-24T03:36:01;2.77;;;1.80;;
4957;SDS011;2494;51.872;9.688;2023-07-24T03:38:48;2.83;;;1.73;;
4957;SDS011;2494;51.872;9.688;2023-07-24T03:41:33;2.10;;;1.80;;
4957;SDS011;2494;51.872;9.688;2023-07-24T03:44:19;4.53;;;2.23;;
4957;SDS011;2494;51.872;9.688;2023-07-24T03:47:04;3.03;;;1.70;;
4957;SDS011;2494;51.872;9.688;2023-07-24T03:49:49;5.07;;;1.97;;
4957;SDS011;2494;51.872;9.688;2023-07-24T03:52:35;1.70;;;1.60;;
4957;SDS011;2494;51.872;9.688;2023-07-24T03:55:22;2.87;;;1.70;;
4957;SDS011;2494;51.872;9.688;2023-07-24T03:58:07;2.83;;;1.70;;
4957;SDS011;2494;51.872;9.688;2023-07-24T04:00:52;3.10;;;2.13;;
4957;SDS011;2494;51.872;9.688;2023-07-24T04:03:37;2.23;;;1.90;;
4957;SDS011;2494;51.872;9.688;2023-07-24T04:06:22;4.87;;;2.00;;
4957;SDS011;2494;51.872;9.688;2023-07-24T04:09:07;2.30;;;2.20;;
4957;SDS011;2494;51.872;9.688;2023-07-24T04:11:54;3.63;;;2.27;;
4957;SDS011;2494;51.872;9.688;2023-07-24T04:14:39;4.40;;;2.20;;
4957;SDS011;2494;51.872;9.688;2023-07-24T04:17:23;2.30;;;2.10;;
4957;SDS011;2494;51.872;9.688;2023-07-24T04:20:09;2.03;;;1.90;;
4957;SDS011;2494;51.872;9.688;2023-07-24T04:22:54;2.90;;;2.60;;
4957;SDS011;2494;51.872;9.688;2023-07-24T04:25:39;2.17;;;2.07;;
4957;SDS011;2494;51.872;9.688;2023-07-24T04:28:26;1.90;;;1.80;;
4957;SDS011;2494;51.872;9.688;2023-07-24T04:31:12;2.57;;;2.10;;
4957;SDS011;2494;51.872;9.688;2023-07-24T04:33:57;2.57;;;2.37;;
4957;SDS011;2494;51.872;9.688;2023-07-24T04:36:43;4.90;;;2.10;;
4957;SDS011;2494;51.872;9.688;2023-07-24T04:39:28;2.33;;;2.13;;
4957;SDS011;2494;51.872;9.688;2023-07-24T04:42:13;2.17;;;1.70;;
4957;SDS011;2494;51.872;9.688;2023-07-24T04:45:00;2.00;;;1.60;;
4957;SDS011;2494;51.872;9.688;2023-07-24T04:47:45;1.70;;;1.60;;
4957;SDS011;2494;51.872;9.688;2023-07-24T04:50:30;3.83;;;1.87;;
4957;SDS011;2494;51.872;9.688;2023-07-24T04:53:16;3.10;;;1.80;;
4957;SDS011;2494;51.872;9.688;2023-07-24T04:56:01;2.10;;;1.73;;
4957;SDS011;2494;51.872;9.688;2023-07-24T04:58:47;1.83;;;1.73;;
4957;SDS011;2494;51.872;9.688;2023-07-24T05:01:33;3.40;;;1.83;;
4957;SDS011;2494;51.872;9.688;2023-07-24T05:04:18;2.03;;;1.83;;
4957;SDS011;2494;51.872;9.688;2023-07-24T05:07:03;2.07;;;1.80;;
4957;SDS011;2494;51.872;9.688;2023-07-24T05:09:48;4.47;;;2.10;;
4957;SDS011;2494;51.872;9.688;2023-07-24T05:12:33;2.00;;;1.90;;
4957;SDS011;2494;51.872;9.688;2023-07-24T05:15:18;2.37;;;2.00;;
4957;SDS011;2494;51.872;9.688;2023-07-24T05:18:05;3.07;;;2.10;;
4957;SDS011;2494;51.872;9.688;2023-07-24T05:20:50;2.80;;;1.80;;
4957;SDS011;2494;51.872;9.688;2023-07-24T05:23:36;1.97;;;1.87;;
4957;SDS011;2494;51.872;9.688;2023-07-24T05:26:21;2.40;;;2.20;;
4957;SDS011;2494;51.872;9.688;2023-07-24T05:29:06;2.20;;;1.80;;
4957;SDS011;2494;51.872;9.688;2023-07-24T05:31:51;3.10;;;2.50;;
4957;SDS011;2494;51.872;9.688;2023-07-24T05:34:38;3.43;;;2.37;;
4957;SDS011;2494;51.872;9.688;2023-07-24T05:37:23;2.33;;;2.13;;
4957;SDS011;2494;51.872;9.688;2023-07-24T05:40:08;2.10;;;1.90;;
4957;SDS011;2494;51.872;9.688;2023-07-24T05:42:54;2.90;;;2.30;;
4957;SDS011;2494;51.872;9.688;2023-07-24T05:45:42;2.57;;;2.20;;
4957;SDS011;2494;51.872;9.688;2023-07-24T05:48:27;2.07;;;1.93;;
4957;SDS011;2494;51.872;9.688;2023-07-24T05:51:14;2.57;;;2.37;;
4957;SDS011;2494;51.872;9.688;2023-07-24T05:53:59;1.87;;;1.77;;
4957;SDS011;2494;51.872;9.688;2023-07-24T05:56:44;2.30;;;1.90;;
4957;SDS011;2494;51.872;9.688;2023-07-24T05:59:29;1.90;;;1.80;;
4957;SDS011;2494;51.872;9.688;2023-07-24T06:02:15;2.47;;;2.00;;
4957;SDS011;2494;51.872;9.688;2023-07-24T06:05:00;2.57;;;2.03;;
4957;SDS011;2494;51.872;9.688;2023-07-24T06:07:47;2.23;;;2.03;;
4957;SDS011;2494;51.872;9.688;2023-07-24T06:10:32;2.53;;;2.33;;
4957;SDS011;2494;51.872;9.688;2023-07-24T06:13:18;2.23;;;1.90;;
4957;SDS011;2494;51.872;9.688;2023-07-24T06:16:03;2.37;;;1.90;;
4957;SDS011;2494;51.872;9.688;2023-07-24T06:18:51;2.30;;;2.10;;
4957;SDS011;2494;51.872;9.688;2023-07-24T06:21:36;5.60;;;2.10;;
4957;SDS011;2494;51.872;9.688;2023-07-24T06:24:22;2.10;;;1.90;;
4957;SDS011;2494;51.872;9.688;2023-07-24T06:27:08;1.83;;;1.73;;
4957;SDS011;2494;51.872;9.688;2023-07-24T06:29:53;4.23;;;2.23;;
4957;SDS011;2494;51.872;9.688;2023-07-24T06:32:38;1.80;;;1.70;;
4957;SDS011;2494;51.872;9.688;2023-07-24T06:35:23;2.13;;;1.93;;
4957;SDS011;2494;51.872;9.688;2023-07-24T06:38:08;1.60;;;1.50;;
4957;SDS011;2494;51.872;9.688;2023-07-24T06:40:55;3.40;;;2.40;;
4957;SDS011;2494;51.872;9.688;2023-07-24T06:43:40;2.27;;;1.90;;
4957;SDS011;2494;51.872;9.688;2023-07-24T06:46:26;4.60;;;1.97;;
4957;SDS011;2494;51.872;9.688;2023-07-24T06:49:11;2.30;;;1.93;;
4957;SDS011;2494;51.872;9.688;2023-07-24T06:51:56;1.90;;;1.80;;
4957;SDS011;2494;51.872;9.688;2023-07-24T06:54:41;2.43;;;2.23;;
4957;SDS011;2494;51.872;9.688;2023-07-24T06:57:30;2.40;;;2.03;;
4957;SDS011;2494;51.872;9.688;2023-07-24T07:00:16;2.03;;;1.80;;
4957;SDS011;2494;51.872;9.688;2023-07-24T07:03:01;5.23;;;2.50;;
4957;SDS011;2494;51.872;9.688;2023-07-24T07:05:49;2.50;;;1.90;;
4957;SDS011;2494;51.872;9.688;2023-07-24T07:08:35;2.90;;;2.10;;
4957;SDS011;2494;51.872;9.688;2023-07-24T07:11:20;2.33;;;2.07;;
4957;SDS011;2494;51.872;9.688;2023-07-24T07:14:07;2.00;;;1.80;;
4957;SDS011;2494;51.872;9.688;2023-07-24T07:16:54;2.27;;;2.10;;
4957;SDS011;2494;51.872;9.688;2023-07-24T07:19:47;2.50;;;2.30;;
4957;SDS011;2494;51.872;9.688;2023-07-24T07:22:32;2.20;;;2.00;;
4957;SDS011;2494;51.872;9.688;2023-07-24T07:25:18;2.30;;;2.10;;
4957;SDS011;2494;51.872;9.688;2023-07-24T07:28:03;4.80;;;2.10;;
4957;SDS011;2494;51.872;9.688;2023-07-24T07:30:50;2.80;;;2.10;;
4957;SDS011;2494;51.872;9.688;2023-07-24T07:33:35;2.33;;;2.13;;
4957;SDS011;2494;51.872;9.688;2023-07-24T07:36:20;2.37;;;1.90;;
4957;SDS011;2494;51.872;9.688;2023-07-24T07:39:06;2.00;;;1.90;;
4957;SDS011;2494;51.872;9.688;2023-07-24T07:41:53;3.07;;;2.30;;
4957;SDS011;2494;51.872;9.688;2023-07-24T07:44:42;2.47;;;2.37;;
4957;SDS011;2494;51.872;9.688;2023-07-24T07:47:29;5.50;;;2.37;;
4957;SDS011;2494;51.872;9.688;2023-07-24T07:50:15;3.00;;;2.70;;
4957;SDS011;2494;51.872;9.688;2023-07-24T07:53:00;2.53;;;2.33;;
4957;SDS011;2494;51.872;9.688;2023-07-24T07:55:46;2.70;;;2.50;;
4957;SDS011;2494;51.872;9.688;2023-07-24T07:58:34;2.60;;;2.40;;
4957;SDS011;2494;51.872;9.688;2023-07-24T08:01:20;2.87;;;2.67;;
4957;SDS011;2494;51.872;9.688;2023-07-24T08:04:06;2.80;;;2.20;;
4957;SDS011;2494;51.872;9.688;2023-07-24T08:06:51;2.80;;;2.37;;
4957;SDS011;2494;51.872;9.688;2023-07-24T08:09:36;3.73;;;3.07;;
4957;SDS011;2494;51.872;9.688;2023-07-24T08:12:22;3.97;;;3.67;;
4957;SDS011;2494;51.872;9.688;2023-07-24T08:15:08;5.87;;;2.30;;
4957;SDS011;2494;51.872;9.688;2023-07-24T08:17:55;3.70;;;3.00;;
4957;SDS011;2494;51.872;9.688;2023-07-24T08:20:44;4.53;;;3.57;;
4957;SDS011;2494;51.872;9.688;2023-07-24T08:23:32;4.37;;;3.97;;
4957;SDS011;2494;51.872;9.688;2023-07-24T08:26:17;5.90;;;4.00;;
4957;SDS011;2494;51.872;9.688;2023-07-24T08:29:03;4.27;;;3.87;;
4957;SDS011;2494;51.872;9.688;2023-07-24T08:31:48;4.10;;;3.53;;
4957;SDS011;2494;51.872;9.688;2023-07-24T08:34:33;2.70;;;2.50;;
4957;SDS011;2494;51.872;9.688;2023-07-24T08:37:20;2.70;;;2.50;;
4957;SDS011;2494;51.872;9.688;2023-07-24T08:40:08;3.50;;;2.30;;
4957;SDS011;2494;51.872;9.688;2023-07-24T08:42:54;3.03;;;2.30;;
4957;SDS011;2494;51.872;9.688;2023-07-24T08:45:42;3.10;;;2.40;;
4957;SDS011;2494;51.872;9.688;2023-07-24T08:48:29;1.63;;;1.53;;
4957;SDS011;2494;51.872;9.688;2023-07-24T08:51:14;2.57;;;1.80;;
4957;SDS011;2494;51.872;9.688;2023-07-24T08:54:03;1.70;;;1.60;;
4957;SDS011;2494;51.872;9.688;2023-07-24T08:56:49;1.40;;;1.30;;
4957;SDS011;2494;51.872;9.688;2023-07-24T08:59:37;1.57;;;1.47;;
4957;SDS011;2494;51.872;9.688;2023-07-24T09:02:22;1.47;;;1.37;;
4957;SDS011;2494;51.872;9.688;2023-07-24T09:05:08;2.00;;;1.80;;
4957;SDS011;2494;51.872;9.688;2023-07-24T09:07:53;1.93;;;1.60;;
4957;SDS011;2494;51.872;9.688;2023-07-24T09:10:42;2.17;;;1.60;;
4957;SDS011;2494;51.872;9.688;2023-07-24T09:13:28;2.50;;;1.80;;
4957;SDS011;2494;51.872;9.688;2023-07-24T09:16:22;5.10;;;1.90;;
4957;SDS011;2494;51.872;9.688;2023-07-24T09:19:16;1.70;;;1.60;;
4957;SDS011;2494;51.872;9.688;2023-07-24T09:22:08;4.53;;;2.20;;
4957;SDS011;2494;51.872;9.688;2023-07-24T09:24:54;2.87;;;2.00;;
4957;SDS011;2494;51.872;9.688;2023-07-24T09:27:41;1.70;;;1.60;;
4957;SDS011;2494;51.872;9.688;2023-07-24T09:30:26;6.63;;;2.03;;
4957;SDS011;2494;51.872;9.688;2023-07-24T09:33:11;1.70;;;1.60;;
4957;SDS011;2494;51.872;9.688;2023-07-24T09:35:57;1.93;;;1.83;;
4957;SDS011;2494;51.872;9.688;2023-07-24T09:38:42;2.50;;;2.30;;
4957;SDS011;2494;51.872;9.688;2023-07-24T09:41:29;7.77;;;2.23;;
4957;SDS011;2494;51.872;9.688;2023-07-24T09:44:15;2.17;;;1.97;;
4957;SDS011;2494;51.872;9.688;2023-07-24T09:47:01;3.67;;;1.80;;
4957;SDS011;2494;51.872;9.688;2023-07-24T09:49:49;4.53;;;2.13;;
4957;SDS011;2494;51.872;9.688;2023-07-24T09:52:35;2.23;;;2.07;;
4957;SDS011;2494;51.872;9.688;2023-07-24T09:55:23;6.03;;;2.47;;
4957;SDS011;2494;51.872;9.688;2023-07-24T09:58:12;4.90;;;2.80;;
4957;SDS011;2494;51.872;9.688;2023-07-24T10:01:00;3.10;;;2.77;;
4957;SDS011;2494;51.872;9.688;2023-07-24T10:03:46;2.10;;;1.90;;
4957;SDS011;2494;51.872;9.688;2023-07-24T10:06:31;2.93;;;2.73;;
4957;SDS011;2494;51.872;9.688;2023-07-24T10:09:17;2.07;;;1.97;;
4957;SDS011;2494;51.872;9.688;2023-07-24T10:12:08;2.67;;;2.47;;
4957;SDS011;2494;51.872;9.688;2023-07-24T10:14:53;2.20;;;2.10;;
4957;SDS011;2494;51.872;9.688;2023-07-24T10:17:40;2.10;;;2.00;;
4957;SDS011;2494;51.872;9.688;2023-07-24T10:20:32;2.37;;;2.27;;
4957;SDS011;2494;51.872;9.688;2023-07-24T10:23:17;2.10;;;1.90;;
4957;SDS011;2494;51.872;9.688;2023-07-24T10:26:04;2.17;;;2.07;;
4957;SDS011;2494;51.872;9.688;2023-07-24T10:28:49;2.10;;;1.90;;
4957;SDS011;2494;51.872;9.688;2023-07-24T10:31:35;2.87;;;2.10;;
4957;SDS011;2494;51.872;9.688;2023-07-24T10:34:22;3.90;;;1.83;;
4957;SDS011;2494;51.872;9.688;2023-07-24T10:37:07;1.83;;;1.73;;
4957;SDS011;2494;51.872;9.688;2023-07-24T10:39:54;2.37;;;2.23;;
4957;SDS011;2494;51.872;9.688;2023-07-24T10:42:38;2.37;;;2.27;;
4957;SDS011;2494;51.872;9.688;2023-07-24T10:45:24;3.10;;;2.20;;
4957;SDS011;2494;51.872;9.688;2023-07-24T10:48:10;2.30;;;2.20;;
4957;SDS011;2494;51.872;9.688;2023-07-24T10:50:58;3.30;;;1.80;;
4957;SDS011;2494;51.872;9.688;2023-07-24T10:53:49;3.10;;;2.57;;
4957;SDS011;2494;51.872;9.688;2023-07-24T10:56:37;2.70;;;2.50;;
4957;SDS011;2494;51.872;9.688;2023-07-24T10:59:22;2.47;;;2.30;;
4957;SDS011;2494;51.872;9.688;2023-07-24T11:02:07;2.53;;;2.33;;
4957;SDS011;2494;51.872;9.688;2023-07-24T11:04:54;2.87;;;2.60;;
4957;SDS011;2494;51.872;9.688;2023-07-24T11:07:40;2.53;;;2.33;;
4957;SDS011;2494;51.872;9.688;2023-07-24T11:10:26;2.67;;;2.30;;
4957;SDS011;2494;51.872;9.688;2023-07-24T11:13:11;2.20;;;2.10;;
4957;SDS011;2494;51.872;9.688;2023-07-24T11:15:56;2.63;;;2.43;;
4957;SDS011;2494;51.872;9.688;2023-07-24T11:18:49;3.43;;;2.67;;
4957;SDS011;2494;51.872;9.688;2023-07-24T11:21:36;3.57;;;3.37;;
4957;SDS011;2494;51.872;9.688;2023-07-24T11:24:22;3.30;;;2.87;;
4957;SDS011;2494;51.872;9.688;2023-07-24T11:27:08;2.83;;;2.53;;
4957;SDS011;2494;51.872;9.688;2023-07-24T11:29:53;3.10;;;2.90;;
4957;SDS011;2494;51.872;9.688;2023-07-24T11:32:39;5.07;;;3.10;;
4957;SDS011;2494;51.872;9.688;2023-07-24T11:35:25;3.50;;;2.50;;
4957;SDS011;2494;51.872;9.688;2023-07-24T11:38:10;2.90;;;2.60;;
4957;SDS011;2494;51.872;9.688;2023-07-24T11:40:57;2.87;;;2.67;;
4957;SDS011;2494;51.872;9.688;2023-07-24T11:43:46;3.97;;;3.10;;
4957;SDS011;2494;51.872;9.688;2023-07-24T11:46:32;2.83;;;2.50;;
4957;SDS011;2494;51.872;9.688;2023-07-24T11:49:18;4.77;;;3.20;;
4957;SDS011;2494;51.872;9.688;2023-07-24T11:52:05;2.87;;;2.67;;
4957;SDS011;2494;51.872;9.688;2023-07-24T11:54:57;2.83;;;2.63;;
4957;SDS011;2494;51.872;9.688;2023-07-24T12:00:46;4.10;;;2.90;;
4957;SDS011;2494;51.872;9.688;2023-07-24T12:03:32;2.80;;;2.60;;
4957;SDS011;2494;51.872;9.688;2023-07-24T12:06:17;2.33;;;2.13;;
4957;SDS011;2494;51.872;9.688;2023-07-24T12:09:04;3.07;;;2.87;;
4957;SDS011;2494;51.872;9.688;2023-07-24T12:11:49;3.20;;;2.90;;
4957;SDS011;2494;51.872;9.688;2023-07-24T12:14:34;3.10;;;2.50;;
4957;SDS011;2494;51.872;9.688;2023-07-24T12:17:21;2.87;;;2.67;;
4957;SDS011;2494;51.872;9.688;2023-07-24T12:20:07;2.47;;;2.27;;
4957;SDS011;2494;51.872;9.688;2023-07-24T12:22:53;2.93;;;2.73;;
4957;SDS011;2494;51.872;9.688;2023-07-24T12:25:40;2.53;;;2.40;;
4957;SDS011;2494;51.872;9.688;2023-07-24T12:28:27;2.90;;;2.70;;
4957;SDS011;2494;51.872;9.688;2023-07-24T12:31:12;6.70;;;3.17;;
4957;SDS011;2494;51.872;9.688;2023-07-24T12:33:59;3.17;;;2.97;;
4957;SDS011;2494;51.872;9.688;2023-07-24T12:36:44;3.00;;;2.80;;
4957;SDS011;2494;51.872;9.688;2023-07-24T12:39:31;3.47;;;2.80;;
4957;SDS011;2494;51.872;9.688;2023-07-24T12:42:16;2.80;;;2.60;;
4957;SDS011;2494;51.872;9.688;2023-07-24T12:45:01;2.90;;;2.57;;
4957;SDS011;2494;51.872;9.688;2023-07-24T12:47:47;2.70;;;2.50;;
4957;SDS011;2494;51.872;9.688;2023-07-24T12:50:36;3.17;;;2.87;;
4957;SDS011;2494;51.872;9.688;2023-07-24T12:53:21;3.07;;;2.57;;
4957;SDS011;2494;51.872;9.688;2023-07-24T12:56:07;2.23;;;2.13;;
4957;SDS011;2494;51.872;9.688;2023-07-24T12:58:52;3.20;;;2.93;;
4957;SDS011;2494;51.872;9.688;2023-07-24T13:01:38;3.17;;;2.77;;
4957;SDS011;2494;51.872;9.688;2023-07-24T13:04:23;2.43;;;2.33;;
4957;SDS011;2494;51.872;9.688;2023-07-24T13:07:10;2.60;;;2.40;;
4957;SDS011;2494;51.872;9.688;2023-07-24T13:09:55;2.37;;;2.10;;
4957;SDS011;2494;51.872;9.688;2023-07-24T13:12:40;3.63;;;2.30;;
4957;SDS011;2494;51.872;9.688;2023-07-24T13:15:26;2.77;;;2.57;;
4957;SDS011;2494;51.872;9.688;2023-07-24T13:18:14;3.00;;;2.40;;
4957;SDS011;2494;51.872;9.688;2023-07-24T13:21:00;2.87;;;2.67;;
4957;SDS011;2494;51.872;9.688;2023-07-24T13:23:47;2.77;;;2.57;;
4957;SDS011;2494;51.872;9.688;2023-07-24T13:26:33;2.63;;;2.43;;
4957;SDS011;2494;51.872;9.688;2023-07-24T13:29:18;2.40;;;2.30;;
4957;SDS011;2494;51.872;9.688;2023-07-24T13:32:04;2.70;;;2.50;;
4957;SDS011;2494;51.872;9.688;2023-07-24T13:34:52;2.90;;;2.70;;
4957;SDS011;2494;51.872;9.688;2023-07-24T13:37:37;3.30;;;2.97;;
4957;SDS011;2494;51.872;9.688;2023-07-24T13:40:24;2.80;;;2.60;;
4957;SDS011;2494;51.872;9.688;2023-07-24T13:43:10;6.77;;;2.57;;
4957;SDS011;2494;51.872;9.688;2023-07-24T13:45:55;2.17;;;2.07;;
4957;SDS011;2494;51.872;9.688;2023-07-24T13:48:42;2.73;;;2.53;;
4957;SDS011;2494;51.872;9.688;2023-07-24T13:51:27;2.80;;;2.60;;
4957;SDS011;2494;51.872;9.688;2023-07-24T13:54:13;3.10;;;2.50;;
4957;SDS011;2494;51.872;9.688;2023-07-24T13:57:02;2.43;;;2.00;;
4957;SDS011;2494;51.872;9.688;2023-07-24T13:59:49;4.20;;;2.80;;
4957;SDS011;2494;51.872;9.688;2023-07-24T14:02:34;2.90;;;2.60;;
4957;SDS011;2494;51.872;9.688;2023-07-24T14:05:20;2.50;;;2.30;;
4957;SDS011;2494;51.872;9.688;2023-07-24T14:08:06;3.43;;;3.23;;
4957;SDS011;2494;51.872;9.688;2023-07-24T14:10:51;2.90;;;2.70;;
4957;SDS011;2494;51.872;9.688;2023-07-24T14:13:38;3.37;;;3.17;;
4957;SDS011;2494;51.872;9.688;2023-07-24T14:16:23;2.83;;;2.53;;
4957;SDS011;2494;51.872;9.688;2023-07-24T14:19:08;3.10;;;2.77;;
4957;SDS011;2494;51.872;9.688;2023-07-24T14:21:56;3.03;;;2.83;;
4957;SDS011;2494;51.872;9.688;2023-07-24T14:24:41;2.20;;;2.10;;
4957;SDS011;2494;51.872;9.688;2023-07-24T14:27:26;3.60;;;2.83;;
4957;SDS011;2494;51.872;9.688;2023-07-24T14:30:12;4.57;;;3.63;;
4957;SDS011;2494;51.872;9.688;2023-07-24T14:33:02;9.53;;;3.63;;
4957;SDS011;2494;51.872;9.688;2023-07-24T14:35:48;3.47;;;3.20;;
4957;SDS011;2494;51.872;9.688;2023-07-24T14:38:33;3.50;;;3.20;;
4957;SDS011;2494;51.872;9.688;2023-07-24T14:41:18;11.60;;;2.97;;
4957;SDS011;2494;51.872;9.688;2023-07-24T14:44:03;4.00;;;3.20;;
4957;SDS011;2494;51.872;9.688;2023-07-24T14:46:50;3.80;;;2.50;;
4957;SDS011;2494;51.872;9.688;2023-07-24T14:49:35;4.70;;;2.07;;
4957;SDS011;2494;51.872;9.688;2023-07-24T14:52:20;2.60;;;2.40;;
4957;SDS011;2494;51.872;9.688;2023-07-24T14:55:05;2.80;;;2.50;;
4957;SDS011;2494;51.872;9.688;2023-07-24T14:57:54;4.07;;;3.60;;
4957;SDS011;2494;51.872;9.688;2023-07-24T15:00:39;3.13;;;2.60;;
4957;SDS011;2494;51.872;9.688;2023-07-24T15:03:25;4.67;;;2.90;;
4957;SDS011;2494;51.872;9.688;2023-07-24T15:06:11;5.10;;;2.80;;
4957;SDS011;2494;51.872;9.688;2023-07-24T15:08:56;3.20;;;2.57;;
4957;SDS011;2494;51.872;9.688;2023-07-24T15:11:42;4.40;;;3.07;;
4957;SDS011;2494;51.872;9.688;2023-07-24T15:14:27;6.03;;;3.10;;
4957;SDS011;2494;51.872;9.688;2023-07-24T15:17:12;2.63;;;2.43;;
4957;SDS011;2494;51.872;9.688;2023-07-24T15:19:59;2.50;;;2.30;;
4957;SDS011;2494;51.872;9.688;2023-07-24T15:22:45;2.40;;;2.20;;
4957;SDS011;2494;51.872;9.688;2023-07-24T15:25:30;4.60;;;3.47;;
4957;SDS011;2494;51.872;9.688;2023-07-24T15:28:15;2.83;;;2.63;;
4957;SDS011;2494;51.872;9.688;2023-07-24T15:31:00;2.53;;;2.33;;
4957;SDS011;2494;51.872;9.688;2023-07-24T15:33:48;2.13;;;1.93;;
4957;SDS011;2494;51.872;9.688;2023-07-24T15:36:35;2.77;;;2.13;;
4957;SDS011;2494;51.872;9.688;2023-07-24T15:39:21;1.80;;;1.70;;
4957;SDS011;2494;51.872;9.688;2023-07-24T15:42:06;3.53;;;2.00;;
4957;SDS011;2494;51.872;9.688;2023-07-24T15:44:52;2.00;;;1.90;;
4957;SDS011;2494;51.872;9.688;2023-07-24T15:47:37;1.90;;;1.80;;
4957;SDS011;2494;51.872;9.688;2023-07-24T15:50:26;2.77;;;2.57;;
4957;SDS011;2494;51.872;9.688;2023-07-24T15:53:15;3.20;;;1.90;;
4957;SDS011;2494;51.872;9.688;2023-07-24T15:56:00;2.03;;;1.70;;
4957;SDS011;2494;51.872;9.688;2023-07-24T15:58:46;2.07;;;1.80;;
4957;SDS011;2494;51.872;9.688;2023-07-24T16:01:31;1.60;;;1.50;;
4957;SDS011;2494;51.872;9.688;2023-07-24T16:04:16;1.63;;;1.53;;
4957;SDS011;2494;51.872;9.688;2023-07-24T16:07:01;1.40;;;1.30;;
4957;SDS011;2494;51.872;9.688;2023-07-24T16:09:47;1.80;;;1.70;;
4957;SDS011;2494;51.872;9.688;2023-07-24T16:12:33;1.47;;;1.27;;
4957;SDS011;2494;51.872;9.688;2023-07-24T16:15:17;2.60;;;1.60;;
4957;SDS011;2494;51.872;9.688;2023-07-24T16:18:05;1.50;;;1.40;;
4957;SDS011;2494;51.872;9.688;2023-07-24T16:20:50;1.90;;;1.47;;
4957;SDS011;2494;51.872;9.688;2023-07-24T16:23:35;2.13;;;1.70;;
4957;SDS011;2494;51.872;9.688;2023-07-24T16:26:23;1.80;;;1.70;;
4957;SDS011;2494;51.872;9.688;2023-07-24T16:29:11;1.70;;;1.60;;
4957;SDS011;2494;51.872;9.688;2023-07-24T16:32:00;3.03;;;1.60;;
4957;SDS011;2494;51.872;9.688;2023-07-24T16:34:48;2.20;;;2.00;;
4957;SDS011;2494;51.872;9.688;2023-07-24T16:37:33;2.03;;;1.50;;
4957;SDS011;2494;51.872;9.688;2023-07-24T16:40:18;1.90;;;1.70;;
4957;SDS011;2494;51.872;9.688;2023-07-24T16:43:05;1.47;;;1.37;;
4957;SDS011;2494;51.872;9.688;2023-07-24T16:45:50;2.10;;;1.40;;
4957;SDS011;2494;51.872;9.688;2023-07-24T16:48:35;1.57;;;1.47;;
4957;SDS011;2494;51.872;9.688;2023-07-24T16:51:21;1.73;;;1.40;;
4957;SDS011;2494;51.872;9.688;2023-07-24T16:54:06;1.47;;;1.37;;
4957;SDS011;2494;51.872;9.688;2023-07-24T16:56:51;1.70;;;1.50;;
4957;SDS011;2494;51.872;9.688;2023-07-24T16:59:37;2.50;;;1.70;;
4957;SDS011;2494;51.872;9.688;2023-07-24T17:02:22;2.50;;;1.70;;
4957;SDS011;2494;51.872;9.688;2023-07-24T17:05:08;1.80;;;1.60;;
4957;SDS011;2494;51.872;9.688;2023-07-24T17:07:53;1.87;;;1.77;;
4957;SDS011;2494;51.872;9.688;2023-07-24T17:10:42;1.80;;;1.70;;
4957;SDS011;2494;51.872;9.688;2023-07-24T17:13:30;3.07;;;2.87;;